Putnam, Connecticut
Current Conditions -  °F | °C
As of 12:52 PM on Monday 24 Nov 2014 (Local Time) from KIJD Reporting Station
Overcast Overcast  
Wind Chill: 65°   Ceiling: 1000
Heat Index: 65°   Visibility: 7mi
Dew Point: 61°   Wind: 17mph
Humidity: 87%   Direction: 190°S
Pressure: 29.65"   Gusts: 26mph
Location:  41.92°N, 71.91°W
Report Text: KIJD 241752Z AUTO 19015G23KT 7SM OVC010 18/16 A2965 RMK AO2 RAE04 SLP038 P0000 60037 T01830161 10183 20161 58023
Loading
Personal Weather Stations






























Interactive Weather Map New forecast layout! Learn more

10-Day Weather Forecast

Advertisements
Track Severe Weather on mobile